createdAt,value
2019-03-03T00:00:44.757Z,67.40
2019-03-03T00:03:13.573Z,67.20
2019-03-03T00:05:42.263Z,66.70
2019-03-03T00:08:11.020Z,66.40
2019-03-03T00:10:39.783Z,66.30
2019-03-03T00:13:08.471Z,66.60
2019-03-03T00:15:37.217Z,66.30
2019-03-03T00:18:05.927Z,66.10
2019-03-03T00:20:37.480Z,65.70
2019-03-03T00:23:06.172Z,65.70
2019-03-03T00:25:34.859Z,65.70
2019-03-03T00:28:03.906Z,65.30
2019-03-03T00:30:32.832Z,65.20
2019-03-03T00:33:01.516Z,64.80
2019-03-03T00:35:31.660Z,65.10
2019-03-03T00:38:04.772Z,64.70
2019-03-03T00:40:43.996Z,64.40
2019-03-03T00:43:32.721Z,64.50
2019-03-03T00:46:05.906Z,64.30
2019-03-03T00:48:39.173Z,64.80
2019-03-03T00:51:24.987Z,63.90
2019-03-03T00:54:01.380Z,64.00
2019-03-03T00:56:34.539Z,64.10
2019-03-03T00:59:04.895Z,63.80
2019-03-03T01:01:53.188Z,63.60
2019-03-03T01:04:23.661Z,63.80
2019-03-03T01:06:56.404Z,63.70
2019-03-03T01:09:39.433Z,64.00
2019-03-03T01:12:12.608Z,64.10
2019-03-03T01:14:45.912Z,64.20
2019-03-03T01:17:16.178Z,64.30
2019-03-03T01:19:49.582Z,64.10
2019-03-03T01:22:19.908Z,64.30
2019-03-03T01:24:50.173Z,64.30
2019-03-03T01:27:18.862Z,64.30
2019-03-03T01:29:47.734Z,64.30
2019-03-03T01:32:16.953Z,64.40
2019-03-03T01:34:45.693Z,64.30
2019-03-03T01:37:14.427Z,64.20
2019-03-03T01:39:43.279Z,64.40
2019-03-03T01:42:11.975Z,64.10
2019-03-03T01:44:40.751Z,64.00
2019-03-03T01:47:09.451Z,64.10
2019-03-03T01:49:38.324Z,64.00
2019-03-03T01:52:07.071Z,63.90
2019-03-03T01:54:36.560Z,63.80
2019-03-03T01:57:05.270Z,64.40
2019-03-03T01:59:34.044Z,63.80
2019-03-03T02:02:02.726Z,63.80
2019-03-03T02:04:31.435Z,63.70
2019-03-03T02:07:00.158Z,63.30
2019-03-03T02:09:29.440Z,63.00
2019-03-03T02:11:58.144Z,62.80
2019-03-03T02:14:26.895Z,63.20
2019-03-03T02:16:55.583Z,62.90
2019-03-03T02:19:24.464Z,62.70
2019-03-03T02:21:53.138Z,62.70
2019-03-03T02:24:21.841Z,62.50
2019-03-03T02:26:50.843Z,62.20
2019-03-03T02:29:19.552Z,62.60
2019-03-03T02:31:48.239Z,62.50
2019-03-03T02:34:16.980Z,62.90
2019-03-03T02:36:45.679Z,62.80
2019-03-03T02:39:16.215Z,63.00
2019-03-03T02:41:44.974Z,62.90
2019-03-03T02:44:14.522Z,62.90
2019-03-03T02:46:43.213Z,62.70
2019-03-03T02:49:12.220Z,62.70
2019-03-03T02:51:40.906Z,62.60
2019-03-03T02:54:09.596Z,62.70
2019-03-03T02:56:38.340Z,62.80
2019-03-03T02:59:07.055Z,62.70
2019-03-03T03:01:43.152Z,62.70
2019-03-03T03:04:11.943Z,63.20
2019-03-03T03:06:42.198Z,62.60
2019-03-03T03:09:12.830Z,62.60
2019-03-03T03:11:49.134Z,62.80
2019-03-03T03:14:37.188Z,62.40
2019-03-03T03:17:10.195Z,62.50
2019-03-03T03:19:46.890Z,62.50
2019-03-03T03:22:19.909Z,62.30
2019-03-03T03:24:52.705Z,62.40
2019-03-03T03:27:28.778Z,62.50
2019-03-03T03:30:17.434Z,62.30
2019-03-03T03:32:47.710Z,62.50
2019-03-03T03:35:17.983Z,62.50
2019-03-03T03:37:51.023Z,62.70
2019-03-03T03:40:21.280Z,62.90
2019-03-03T03:43:06.884Z,62.70
2019-03-03T03:45:46.038Z,62.70
2019-03-03T03:48:19.121Z,62.60
2019-03-03T03:51:05.775Z,62.60
2019-03-03T03:53:45.137Z,62.90
2019-03-03T03:56:15.411Z,63.20
2019-03-03T03:58:51.307Z,63.30
2019-03-03T04:01:24.313Z,63.40
2019-03-03T04:03:57.375Z,63.50
2019-03-03T04:06:40.042Z,63.70
2019-03-03T04:09:25.209Z,63.70
2019-03-03T04:12:04.459Z,63.90
2019-03-03T04:14:37.810Z,64.00
2019-03-03T04:17:20.624Z,64.00
2019-03-03T04:19:50.933Z,63.90
2019-03-03T04:22:37.605Z,64.10
2019-03-03T04:25:22.908Z,64.20
2019-03-03T04:27:52.464Z,64.30
2019-03-03T04:30:22.804Z,64.70
2019-03-03T04:33:05.125Z,65.00
2019-03-03T04:35:38.110Z,65.10
2019-03-03T04:38:11.628Z,65.10
2019-03-03T04:40:42.121Z,65.00
2019-03-03T04:43:12.589Z,65.00
2019-03-03T04:45:45.736Z,65.00
2019-03-03T04:48:15.994Z,65.10
2019-03-03T04:50:49.428Z,65.30
2019-03-03T04:53:28.505Z,65.40
2019-03-03T04:56:08.128Z,65.60
2019-03-03T04:58:41.125Z,65.80
2019-03-03T05:01:19.961Z,65.90
2019-03-03T05:03:53.179Z,66.10
2019-03-03T05:06:23.502Z,66.40
2019-03-03T05:09:02.664Z,66.50
2019-03-03T05:12:14.018Z,67.30
2019-03-03T05:14:44.121Z,66.80
2019-03-03T05:17:20.282Z,67.10
2019-03-03T05:19:50.683Z,67.20
2019-03-03T05:22:19.371Z,67.30
2019-03-03T05:24:48.135Z,67.50
2019-03-03T05:27:16.824Z,67.60
2019-03-03T05:29:45.702Z,67.70
2019-03-03T05:32:14.439Z,67.70
2019-03-03T05:34:43.123Z,67.90
2019-03-03T05:37:11.817Z,67.80
2019-03-03T05:39:40.997Z,68.00
2019-03-03T05:42:09.679Z,68.20
2019-03-03T05:44:38.421Z,68.50
2019-03-03T05:47:10.322Z,68.80
2019-03-03T05:49:39.584Z,69.00
2019-03-03T05:52:08.319Z,69.30
2019-03-03T05:54:37.018Z,69.50
2019-03-03T05:57:05.809Z,69.70
2019-03-03T05:59:34.579Z,69.70
2019-03-03T06:02:03.274Z,70.00
2019-03-03T06:04:31.953Z,70.20
2019-03-03T06:07:00.695Z,70.30
2019-03-03T06:09:29.670Z,70.50
2019-03-03T06:11:58.358Z,70.50
2019-03-03T06:14:27.093Z,70.50
2019-03-03T06:16:55.826Z,70.80
2019-03-03T06:19:24.646Z,70.80
2019-03-03T06:21:53.347Z,71.50
2019-03-03T06:24:22.077Z,70.90
2019-03-03T06:26:50.783Z,70.90
2019-03-03T06:29:19.743Z,71.00
2019-03-03T06:31:48.438Z,71.00
2019-03-03T06:34:17.133Z,71.10
2019-03-03T06:36:45.882Z,71.40
2019-03-03T06:39:15.321Z,71.60
2019-03-03T06:41:44.009Z,71.50
2019-03-03T06:44:13.143Z,71.60
2019-03-03T06:46:41.838Z,71.40
2019-03-03T06:49:10.537Z,71.60
2019-03-03T06:51:39.442Z,71.60
2019-03-03T06:54:08.118Z,71.50
2019-03-03T06:56:36.825Z,71.50
2019-03-03T06:59:05.566Z,71.40
2019-03-03T07:01:34.331Z,71.50
2019-03-03T07:04:03.110Z,71.40
2019-03-03T07:06:31.819Z,71.40
2019-03-03T07:09:00.560Z,71.50
2019-03-03T07:11:30.562Z,71.60
2019-03-03T07:14:01.724Z,71.30
2019-03-03T07:16:30.459Z,71.40
2019-03-03T07:18:59.211Z,71.30
2019-03-03T07:21:27.948Z,71.20
2019-03-03T07:23:56.675Z,71.10
2019-03-03T07:26:25.358Z,71.20
2019-03-03T07:28:54.046Z,71.20
2019-03-03T07:31:22.815Z,71.00
2019-03-03T07:33:52.992Z,70.90
2019-03-03T07:36:21.685Z,70.80
2019-03-03T07:38:50.436Z,70.60
2019-03-03T07:41:19.293Z,70.50
2019-03-03T07:43:48.000Z,70.60
2019-03-03T07:46:16.739Z,70.50
2019-03-03T07:48:45.433Z,70.60
2019-03-03T07:51:14.353Z,70.70
2019-03-03T07:53:43.419Z,70.60
2019-03-03T07:56:12.323Z,70.40
2019-03-03T07:58:41.302Z,70.30
2019-03-03T08:01:10.065Z,70.10
2019-03-03T08:03:38.762Z,70.00
2019-03-03T08:06:07.481Z,69.70
2019-03-03T08:08:36.671Z,69.60
2019-03-03T08:11:05.720Z,69.60
2019-03-03T08:13:34.460Z,69.60
2019-03-03T08:16:03.160Z,69.90
2019-03-03T08:18:31.847Z,69.90
2019-03-03T08:21:00.758Z,70.10
2019-03-03T08:23:29.463Z,70.10
2019-03-03T08:25:58.213Z,70.00
2019-03-03T08:28:26.901Z,70.30
2019-03-03T08:30:56.796Z,69.60
2019-03-03T08:33:25.561Z,69.50
2019-03-03T08:35:54.242Z,69.50
2019-03-03T08:38:23.006Z,69.50
2019-03-03T08:40:51.744Z,70.10
2019-03-03T08:43:24.744Z,69.30
2019-03-03T08:45:55.059Z,69.20
2019-03-03T08:48:34.399Z,69.20
2019-03-03T08:51:04.699Z,68.90
2019-03-03T08:53:40.943Z,68.60
2019-03-03T08:56:11.251Z,68.60
2019-03-03T08:58:56.456Z,68.40
2019-03-03T09:01:29.260Z,68.20
2019-03-03T09:03:59.535Z,67.60
2019-03-03T09:06:45.118Z,67.10
2019-03-03T09:09:16.241Z,66.30
2019-03-03T09:11:46.487Z,65.90
2019-03-03T09:14:16.760Z,65.50
2019-03-03T09:16:56.297Z,65.20
2019-03-03T09:19:35.376Z,65.20
2019-03-03T09:22:08.716Z,65.30
2019-03-03T09:24:41.958Z,65.30
2019-03-03T09:27:18.778Z,65.30
2019-03-03T09:29:55.105Z,65.30
2019-03-03T09:32:41.954Z,64.70
2019-03-03T09:35:14.903Z,64.80
2019-03-03T09:37:51.016Z,65.10
2019-03-03T09:40:38.042Z,64.60
2019-03-03T09:43:11.360Z,64.70
2019-03-03T09:45:41.643Z,64.60
2019-03-03T09:48:14.977Z,64.40
2019-03-03T09:50:50.937Z,64.40
2019-03-03T09:53:26.786Z,64.30
2019-03-03T09:56:00.083Z,64.00
2019-03-03T09:58:39.234Z,63.80
2019-03-03T10:01:12.396Z,63.50
2019-03-03T10:03:45.747Z,63.40
2019-03-03T10:06:21.365Z,63.30
2019-03-03T10:08:57.696Z,63.30
2019-03-03T10:11:28.014Z,62.90
2019-03-03T10:14:14.717Z,63.00
2019-03-03T10:16:56.871Z,62.40
2019-03-03T10:19:36.281Z,61.70
2019-03-03T10:22:09.590Z,61.80
2019-03-03T10:24:48.903Z,61.50
2019-03-03T10:27:19.168Z,61.40
2019-03-03T10:30:05.095Z,61.40
2019-03-03T10:32:47.521Z,61.10
2019-03-03T10:35:20.814Z,61.20
2019-03-03T10:37:51.067Z,61.00
2019-03-03T10:40:35.081Z,61.70
2019-03-03T10:43:05.510Z,61.00
2019-03-03T10:45:38.910Z,60.20
2019-03-03T10:48:21.554Z,59.80
2019-03-03T10:50:52.026Z,59.30
2019-03-03T10:53:31.683Z,59.20
2019-03-03T10:56:17.856Z,58.80
2019-03-03T10:58:57.480Z,58.80
2019-03-03T11:01:36.736Z,58.50
2019-03-03T11:04:07.060Z,58.30
2019-03-03T11:06:46.236Z,57.70
2019-03-03T11:09:25.484Z,57.50
2019-03-03T11:11:55.928Z,57.90
2019-03-03T11:14:42.415Z,57.10
2019-03-03T11:17:18.507Z,57.00
2019-03-03T11:20:05.181Z,56.60
2019-03-03T11:22:51.491Z,56.70
2019-03-03T11:25:30.693Z,56.50
2019-03-03T11:28:04.222Z,56.10
2019-03-03T11:30:50.734Z,56.00
2019-03-03T11:33:21.006Z,55.60
2019-03-03T11:36:08.055Z,55.80
2019-03-03T11:38:50.133Z,55.90
2019-03-03T11:41:29.492Z,55.30
2019-03-03T11:43:59.740Z,55.90
2019-03-03T11:46:39.241Z,55.40
2019-03-03T11:49:12.354Z,54.70
2019-03-03T11:51:51.592Z,54.90
2019-03-03T11:54:30.446Z,55.00
2019-03-03T11:57:03.537Z,54.10
2019-03-03T11:59:33.832Z,54.40
2019-03-03T12:02:20.279Z,54.70
2019-03-03T12:05:07.062Z,54.30
2019-03-03T12:07:44.515Z,54.50
2019-03-03T12:10:21.301Z,53.50
2019-03-03T12:12:51.626Z,53.40
2019-03-03T12:15:33.831Z,53.30
2019-03-03T12:18:11.730Z,53.90
2019-03-03T12:20:47.951Z,54.20
2019-03-03T12:23:27.076Z,53.90
2019-03-03T12:26:06.564Z,54.10
2019-03-03T12:28:42.709Z,54.10
2019-03-03T12:31:19.105Z,54.00
2019-03-03T12:33:49.427Z,54.00
2019-03-03T12:36:20.115Z,54.20
2019-03-03T12:38:50.380Z,54.20
2019-03-03T12:41:23.703Z,54.30
2019-03-03T12:44:03.037Z,54.30
2019-03-03T12:46:33.319Z,54.90
2019-03-03T12:49:09.427Z,54.60
2019-03-03T12:51:46.031Z,54.50
2019-03-03T12:54:25.287Z,54.70
2019-03-03T12:57:07.773Z,54.30
2019-03-03T12:59:53.127Z,54.50
2019-03-03T13:02:26.524Z,54.40
2019-03-03T13:05:11.790Z,55.00
2019-03-03T13:07:54.333Z,54.00
2019-03-03T13:10:35.522Z,54.30
2019-03-03T13:13:08.536Z,54.50
2019-03-03T13:15:47.727Z,54.00
2019-03-03T13:18:20.522Z,54.00
2019-03-03T13:21:02.673Z,54.00
2019-03-03T13:23:33.023Z,54.40
2019-03-03T13:26:03.348Z,55.10
2019-03-03T13:28:36.466Z,53.10
2019-03-03T13:31:16.184Z,53.00
2019-03-03T13:33:58.463Z,52.30
2019-03-03T13:36:31.754Z,52.50
2019-03-03T13:39:04.572Z,52.60
2019-03-03T13:41:35.015Z,52.60
2019-03-03T13:44:03.838Z,52.40
2019-03-03T13:46:32.526Z,52.50
2019-03-03T13:49:01.307Z,52.70
2019-03-03T13:51:30.101Z,52.70
2019-03-03T13:53:58.832Z,52.70
2019-03-03T13:56:27.527Z,52.70
2019-03-03T13:58:56.256Z,53.00
2019-03-03T14:01:25.223Z,52.60
2019-03-03T14:03:53.930Z,52.60
2019-03-03T14:06:22.745Z,52.70
2019-03-03T14:08:51.489Z,53.10
2019-03-03T14:11:30.700Z,53.30
2019-03-03T14:14:00.479Z,53.70
2019-03-03T14:16:29.171Z,54.00
2019-03-03T14:18:58.007Z,54.00
2019-03-03T14:21:26.906Z,54.20
2019-03-03T14:23:55.625Z,54.40
2019-03-03T14:26:24.384Z,54.10
2019-03-03T14:28:55.249Z,54.20
2019-03-03T14:31:23.837Z,54.20
2019-03-03T14:33:52.569Z,53.90
2019-03-03T14:36:21.270Z,54.00
2019-03-03T14:38:49.998Z,54.30
2019-03-03T14:41:19.396Z,54.50
2019-03-03T14:43:48.089Z,54.30
2019-03-03T14:46:16.773Z,54.30
2019-03-03T14:48:45.512Z,54.60
2019-03-03T14:51:14.299Z,54.70
2019-03-03T14:53:43.136Z,54.80
2019-03-03T14:56:11.856Z,55.10
2019-03-03T14:58:40.893Z,54.50
2019-03-03T15:01:09.635Z,55.00
2019-03-03T15:03:38.386Z,54.50
2019-03-03T15:06:07.187Z,54.90
2019-03-03T15:08:36.034Z,55.00
2019-03-03T15:11:05.097Z,54.90
2019-03-03T15:13:33.787Z,54.60
2019-03-03T15:16:02.466Z,54.70
2019-03-03T15:18:31.229Z,54.80
2019-03-03T15:21:00.109Z,55.80
2019-03-03T15:23:28.940Z,55.00
2019-03-03T15:25:57.791Z,54.90
2019-03-03T15:28:26.560Z,55.10
2019-03-03T15:30:55.483Z,55.30
2019-03-03T15:33:24.369Z,55.40
2019-03-03T15:35:53.030Z,55.70
2019-03-03T15:38:21.904Z,55.50
2019-03-03T15:40:50.635Z,55.90
2019-03-03T15:43:19.534Z,56.10
2019-03-03T15:45:48.421Z,58.00
2019-03-03T15:48:17.504Z,59.10
2019-03-03T15:50:46.459Z,58.90
2019-03-03T15:53:15.215Z,59.50
2019-03-03T15:55:43.940Z,59.50
2019-03-03T15:58:12.762Z,59.90
2019-03-03T16:00:42.435Z,60.20
2019-03-03T16:03:11.222Z,59.90
2019-03-03T16:05:40.284Z,59.80
2019-03-03T16:08:09.087Z,59.70
2019-03-03T16:10:37.976Z,59.90
2019-03-03T16:13:06.762Z,59.70
2019-03-03T16:15:35.627Z,60.00
2019-03-03T16:18:04.379Z,60.40
2019-03-03T16:20:33.074Z,60.80
2019-03-03T16:23:02.010Z,61.10
2019-03-03T16:25:30.833Z,61.00
2019-03-03T16:27:59.629Z,61.30
2019-03-03T16:30:28.542Z,61.20
2019-03-03T16:32:57.383Z,61.10
2019-03-03T16:35:26.132Z,61.10
2019-03-03T16:37:54.911Z,61.00
2019-03-03T16:40:25.778Z,61.00
2019-03-03T16:42:54.467Z,60.60
2019-03-03T16:45:23.219Z,60.60
2019-03-03T16:47:51.953Z,60.90
2019-03-03T16:50:22.218Z,60.90
2019-03-03T16:52:50.975Z,61.00
2019-03-03T16:55:20.870Z,61.20
2019-03-03T16:57:49.584Z,61.40
2019-03-03T17:00:25.652Z,61.50
2019-03-03T17:02:54.656Z,61.60
2019-03-03T17:05:27.955Z,61.90
2019-03-03T17:07:56.656Z,62.00
2019-03-03T17:10:25.518Z,62.20
2019-03-03T17:12:54.267Z,62.10
2019-03-03T17:15:24.569Z,62.60
2019-03-03T17:17:53.512Z,62.80
2019-03-03T17:20:22.405Z,63.00
2019-03-03T17:22:51.510Z,63.50
2019-03-03T17:25:26.129Z,63.50
2019-03-03T17:27:54.893Z,63.80
2019-03-03T17:30:24.858Z,63.80
2019-03-03T17:32:53.602Z,64.00
2019-03-03T17:35:22.343Z,64.10
2019-03-03T17:37:51.056Z,64.40
2019-03-03T17:40:25.865Z,64.50
2019-03-03T17:42:53.825Z,64.80
2019-03-03T17:45:23.867Z,65.00
2019-03-03T17:47:52.522Z,65.00
2019-03-03T17:50:26.669Z,64.70
2019-03-03T17:52:55.479Z,64.80
2019-03-03T17:55:24.190Z,64.90
2019-03-03T17:57:52.874Z,65.10
2019-03-03T18:00:46.166Z,65.30
2019-03-03T18:03:15.336Z,65.30
2019-03-03T18:05:44.040Z,65.00
2019-03-03T18:08:14.363Z,65.50
2019-03-03T18:10:43.159Z,65.50
2019-03-03T18:13:12.107Z,65.30
2019-03-03T18:15:40.875Z,65.40
2019-03-03T18:18:09.563Z,65.40
2019-03-03T18:20:38.503Z,65.60
2019-03-03T18:23:07.266Z,66.20
2019-03-03T18:25:35.933Z,66.10
2019-03-03T18:28:04.640Z,66.30
2019-03-03T18:30:33.681Z,66.30
2019-03-03T18:33:02.400Z,66.40
2019-03-03T18:35:31.716Z,66.20
2019-03-03T18:38:00.463Z,66.20
2019-03-03T18:40:29.386Z,66.10
2019-03-03T18:42:58.120Z,66.60
2019-03-03T18:45:26.858Z,66.50
2019-03-03T18:47:55.646Z,66.30
2019-03-03T18:50:29.498Z,66.50
2019-03-03T18:52:59.925Z,66.80
2019-03-03T18:55:28.585Z,67.00
2019-03-03T18:57:57.356Z,67.40
2019-03-03T19:00:31.648Z,67.60
2019-03-03T19:03:00.394Z,67.60
2019-03-03T19:05:29.986Z,67.80
2019-03-03T19:07:58.759Z,67.80
2019-03-03T19:10:32.795Z,68.10
2019-03-03T19:13:01.480Z,67.90
2019-03-03T19:15:30.473Z,68.20
2019-03-03T19:17:59.346Z,68.40
2019-03-03T19:20:28.171Z,68.40
2019-03-03T19:22:56.983Z,68.10
2019-03-03T19:25:25.792Z,68.40
2019-03-03T19:27:54.503Z,68.30
2019-03-03T19:30:27.816Z,68.90
2019-03-03T19:33:02.290Z,68.70
2019-03-03T19:35:31.035Z,68.80
2019-03-03T19:37:59.782Z,69.60
2019-03-03T19:40:28.774Z,69.00
2019-03-03T19:42:57.466Z,69.00
2019-03-03T19:45:32.229Z,68.70
2019-03-03T19:48:01.084Z,69.00
2019-03-03T19:50:29.827Z,69.00
2019-03-03T19:52:58.516Z,68.80
2019-03-03T19:55:27.248Z,68.90
2019-03-03T19:57:55.930Z,68.90
2019-03-03T20:00:35.370Z,68.40
2019-03-03T20:03:00.981Z,68.30
2019-03-03T20:05:29.686Z,68.70
2019-03-03T20:07:58.831Z,68.50
2019-03-03T20:10:27.784Z,68.90
2019-03-03T20:12:56.678Z,69.10
2019-03-03T20:15:25.466Z,68.70
2019-03-03T20:17:54.215Z,69.20
2019-03-03T20:20:24.981Z,69.20
2019-03-03T20:22:53.797Z,68.80
2019-03-03T20:25:23.004Z,69.10
2019-03-03T20:27:52.477Z,69.40
2019-03-03T20:30:23.418Z,69.50
2019-03-03T20:32:52.931Z,69.90
2019-03-03T20:35:22.783Z,70.40
2019-03-03T20:37:52.194Z,70.10
2019-03-03T20:40:28.822Z,70.00
2019-03-03T20:42:58.049Z,70.20
2019-03-03T20:45:28.899Z,70.30
2019-03-03T20:47:58.702Z,70.40
2019-03-03T20:50:27.699Z,70.30
2019-03-03T20:52:58.716Z,70.20
2019-03-03T20:55:29.705Z,70.20
2019-03-03T20:57:58.888Z,70.20
2019-03-03T21:00:28.727Z,70.40
2019-03-03T21:02:57.469Z,70.50
2019-03-03T21:05:26.272Z,70.60
2019-03-03T21:07:57.673Z,70.60
2019-03-03T21:10:31.686Z,70.50
2019-03-03T21:13:00.409Z,70.20
2019-03-03T21:15:29.114Z,70.00
2019-03-03T21:17:57.871Z,70.40
2019-03-03T21:20:31.586Z,70.00
2019-03-03T21:23:00.774Z,70.20
2019-03-03T21:25:29.540Z,70.10
2019-03-03T21:27:59.656Z,70.30
2019-03-03T21:30:28.661Z,70.40
2019-03-03T21:32:57.440Z,70.50
2019-03-03T21:35:26.126Z,70.40
2019-03-03T21:37:54.961Z,70.50
2019-03-03T21:40:27.695Z,70.40
2019-03-03T21:42:59.207Z,70.20
2019-03-03T21:45:29.306Z,70.40
2019-03-03T21:47:58.168Z,70.50
2019-03-03T21:50:28.633Z,69.90
2019-03-03T21:52:57.357Z,69.70
2019-03-03T21:55:26.105Z,68.90
2019-03-03T21:57:55.257Z,68.20
2019-03-03T22:00:34.030Z,68.10
2019-03-03T22:03:02.829Z,67.50
2019-03-03T22:05:31.534Z,67.30
2019-03-03T22:08:00.969Z,67.40
2019-03-03T22:10:29.952Z,66.80
2019-03-03T22:13:00.351Z,67.20
2019-03-03T22:15:32.432Z,66.80
2019-03-03T22:18:01.281Z,66.60
2019-03-03T22:20:32.192Z,67.30
2019-03-03T22:23:01.684Z,67.30
2019-03-03T22:25:30.597Z,67.30
2019-03-03T22:27:59.555Z,67.00
2019-03-03T22:30:29.321Z,67.20
2019-03-03T22:32:58.764Z,67.60
2019-03-03T22:35:28.315Z,67.30
2019-03-03T22:37:59.592Z,67.40
2019-03-03T22:40:28.765Z,67.40
2019-03-03T22:42:58.153Z,68.30
2019-03-03T22:45:27.710Z,67.90
2019-03-03T22:47:58.020Z,67.50
2019-03-03T22:50:28.859Z,67.40
2019-03-03T22:53:01.337Z,67.50
2019-03-03T22:55:33.666Z,67.70
2019-03-03T22:58:02.775Z,66.80
2019-03-03T23:00:48.212Z,67.70
2019-03-03T23:03:32.790Z,67.60
2019-03-03T23:06:06.063Z,68.20
2019-03-03T23:08:38.790Z,68.00
2019-03-03T23:11:22.990Z,67.90
2019-03-03T23:14:00.926Z,68.00
2019-03-03T23:16:39.369Z,68.20
2019-03-03T23:19:26.826Z,68.70
2019-03-03T23:22:15.825Z,68.30
2019-03-03T23:25:25.357Z,68.70
2019-03-03T23:27:57.785Z,68.80
2019-03-03T23:30:27.398Z,69.00
2019-03-03T23:32:57.315Z,68.80
2019-03-03T23:35:26.824Z,69.10
2019-03-03T23:37:56.914Z,69.70
2019-03-03T23:40:25.940Z,70.20
2019-03-03T23:42:54.644Z,70.60
2019-03-03T23:45:23.391Z,71.00
2019-03-03T23:47:52.154Z,71.50
2019-03-03T23:50:20.863Z,71.70
2019-03-03T23:52:49.612Z,72.10
2019-03-03T23:55:18.361Z,71.80
2019-03-03T23:57:47.109Z,72.80
